createdAt,value
2023-02-07T00:03:14.920Z,4118.7
2023-02-07T00:08:51.268Z,4117.8
2023-02-07T00:14:36.346Z,4118.2
2023-02-07T00:20:11.367Z,4117.7
2023-02-07T00:25:46.625Z,4113.8
2023-02-07T00:31:23.741Z,4113.6
2023-02-07T00:36:59.198Z,4117.1
2023-02-07T00:42:34.211Z,4114.1
2023-02-07T00:48:09.969Z,4114.6
2023-02-07T00:53:45.679Z,4117.1
2023-02-07T00:59:21.095Z,4113.1
2023-02-07T01:05:17.236Z,4109.3
2023-02-07T01:10:53.044Z,4113
2023-02-07T01:16:34.413Z,4112.3
2023-02-07T01:22:09.502Z,4109.9
2023-02-07T01:27:44.482Z,4109.6
2023-02-07T01:33:29.429Z,4110.3
2023-02-07T01:39:05.849Z,4110.3
2023-02-07T01:44:40.965Z,4106.4
2023-02-07T01:50:15.978Z,4109.9
2023-02-07T01:55:58.336Z,4111.1
2023-02-07T02:01:35.331Z,4108.9
2023-02-07T02:07:10.519Z,4107.3
2023-02-07T02:12:49.186Z,4106.4
2023-02-07T02:18:29.959Z,4104.4
2023-02-07T02:24:10.661Z,4109.3
2023-02-07T02:29:51.626Z,4103.1
2023-02-07T02:35:29.878Z,4102.6
2023-02-07T02:41:18.959Z,4105.1
2023-02-07T02:46:54.706Z,4104.4
2023-02-07T02:52:52.333Z,4101.1
2023-02-07T02:58:51.770Z,4100.2
2023-02-07T03:04:29.195Z,4101.2
2023-02-07T03:10:04.397Z,4099.9
2023-02-07T03:15:40.423Z,4099.9
2023-02-07T03:21:20.865Z,4101.7
2023-02-07T03:26:56.099Z,4099.1
2023-02-07T03:32:44.750Z,4100.1
2023-02-07T03:38:24.074Z,4099.1
2023-02-07T03:44:04.346Z,4099.7
2023-02-07T03:49:40.460Z,4099.9
2023-02-07T03:55:54.725Z,4101.6
2023-02-07T04:01:51.334Z,4097.4
2023-02-07T04:07:29.686Z,4100.1
2023-02-07T04:13:06.504Z,4099.9
2023-02-07T04:18:47.864Z,4097.9
2023-02-07T04:24:24.340Z,4101.7
2023-02-07T04:30:17.472Z,4097.2
2023-02-07T04:36:13.688Z,4097
2023-02-07T04:42:28.201Z,4098.2
2023-02-07T04:48:03.956Z,4099.2
2023-02-07T04:54:15.757Z,4097.4
2023-02-07T04:59:52.057Z,4098.9
2023-02-07T05:05:31.870Z,4094.5
2023-02-07T05:11:08.834Z,4098.9
2023-02-07T05:16:48.161Z,4098.7
2023-02-07T05:22:34.047Z,4095.9
2023-02-07T05:28:10.170Z,4094.7
2023-02-07T05:33:45.470Z,4096
2023-02-07T05:39:20.415Z,4097.6
2023-02-07T05:44:55.886Z,4097.7
2023-02-07T05:50:31.333Z,4094
2023-02-07T05:56:06.741Z,4097
2023-02-07T06:02:14.699Z,4096.7
2023-02-07T06:07:53.328Z,4095.4
2023-02-07T06:13:28.780Z,4094.4
2023-02-07T06:19:17.957Z,4095.5
2023-02-07T06:25:01.678Z,4093.2
2023-02-07T06:30:37.129Z,4096
2023-02-07T06:36:14.901Z,4094.2
2023-02-07T06:41:53.287Z,4094.2
2023-02-07T06:47:49.937Z,4089.5
2023-02-07T06:53:24.830Z,4091.5
2023-02-07T06:59:00.573Z,4093.4
2023-02-07T07:04:47.137Z,4093.7
2023-02-07T07:10:23.906Z,4089.8
2023-02-07T07:16:00.350Z,4092.7
2023-02-07T07:21:59.974Z,4091.7
2023-02-07T07:28:18.488Z,4090.9
2023-02-07T07:33:54.895Z,4091.5
2023-02-07T07:39:32.812Z,4092.2
2023-02-07T07:45:10.856Z,4091
2023-02-07T07:50:54.238Z,4089.7
2023-02-07T07:56:50.358Z,4090
2023-02-07T08:02:34.537Z,4088.2
2023-02-07T08:08:10.315Z,4088.3
2023-02-07T08:13:47.684Z,4089.3
2023-02-07T08:19:26.435Z,4087.8
2023-02-07T08:25:01.720Z,4085
2023-02-07T08:30:40.816Z,4085.7
2023-02-07T08:36:15.964Z,4091.2
2023-02-07T08:41:51.122Z,4095.4
2023-02-07T08:47:48.163Z,4094.4
2023-02-07T08:53:22.416Z,4095.4
2023-02-07T08:58:58.516Z,4091
2023-02-07T09:04:34.013Z,4088.7
2023-02-07T09:10:09.101Z,4085.8
2023-02-07T09:15:50.017Z,4088.5
2023-02-07T09:21:36.216Z,4091.5
2023-02-07T09:27:12.713Z,4095.4
2023-02-07T09:32:48.809Z,4107.6
2023-02-07T09:38:23.688Z,4107.4
2023-02-07T09:44:01.757Z,4110.6
2023-02-07T09:49:59.278Z,4118.5
2023-02-07T09:55:32.367Z,4123.2
2023-02-07T10:01:07.758Z,4118.2
2023-02-07T10:06:43.376Z,4117.5
2023-02-07T10:12:18.923Z,4129
2023-02-07T10:18:12.490Z,4122.3
2023-02-07T10:23:47.878Z,4136.7
2023-02-07T10:29:37.769Z,4127.7
2023-02-07T10:35:14.246Z,4147
2023-02-07T10:41:22.302Z,4191.5
2023-02-07T10:47:19.917Z,4180.8
2023-02-07T10:53:16.819Z,4182.3
2023-02-07T10:58:52.126Z,4172.4
2023-02-07T11:04:26.917Z,4168.9
2023-02-07T11:10:01.683Z,4177.8
2023-02-07T11:15:39.834Z,4158.5
2023-02-07T11:21:15.384Z,4154.5
2023-02-07T11:26:50.785Z,4171.1
2023-02-07T11:32:31.889Z,4158.2
2023-02-07T11:38:21.664Z,4173.9
2023-02-07T11:44:10.002Z,4162.2
2023-02-07T11:49:49.716Z,4162.4
2023-02-07T11:55:33.835Z,4160.4
2023-02-07T12:01:09.392Z,4159.5
2023-02-07T12:06:48.044Z,4150.8
2023-02-07T12:12:24.159Z,4151.3
2023-02-07T12:18:06.197Z,4162.2
2023-02-07T12:23:44.884Z,4160.7
2023-02-07T12:29:20.408Z,4163
2023-02-07T12:34:55.762Z,4168.1
2023-02-07T12:40:30.670Z,4170.7
2023-02-07T12:46:09.918Z,4174.6
2023-02-07T12:51:45.557Z,4168.6
2023-02-07T12:57:22.026Z,4173.3
2023-02-07T13:02:58.169Z,4163.4
2023-02-07T13:08:33.903Z,4172.3
2023-02-07T13:14:10.078Z,4173.4
2023-02-07T13:19:46.302Z,4176.3
2023-02-07T13:25:21.427Z,4184.8
2023-02-07T13:31:05.075Z,4182.8
2023-02-07T13:36:40.499Z,4185.8
2023-02-07T13:42:15.855Z,4176.3
2023-02-07T13:47:51.313Z,4188.5
2023-02-07T13:53:26.489Z,4170.9
2023-02-07T13:59:01.516Z,4183.3
2023-02-07T14:04:38.030Z,4169.4
2023-02-07T14:10:13.210Z,4181.8
2023-02-07T14:15:49.299Z,4173.3
2023-02-07T14:21:24.946Z,4173.6
2023-02-07T14:27:00.617Z,4174.4
2023-02-07T14:32:36.157Z,4172.3
2023-02-07T14:38:11.120Z,4183.3
2023-02-07T14:43:54.284Z,4185.8
2023-02-07T14:49:35.457Z,4199.1
2023-02-07T14:55:11.066Z,4178.6
2023-02-07T15:00:46.579Z,4180.3
2023-02-07T15:06:34.149Z,4212.5
2023-02-07T15:12:29.405Z,4209.1
2023-02-07T15:18:04.763Z,4211.1
2023-02-07T15:23:40.474Z,4203.9
2023-02-07T15:29:26.450Z,4203.9
2023-02-07T15:35:02.233Z,4183.1
2023-02-07T15:40:37.668Z,4183.5
2023-02-07T15:46:14.614Z,4185.5
2023-02-07T15:51:50.960Z,4180.5
2023-02-07T15:57:26.332Z,4173.9
2023-02-07T16:03:03.517Z,4179.5
2023-02-07T16:08:43.532Z,4182.8
2023-02-07T16:14:18.507Z,4176.4
2023-02-07T16:19:53.760Z,4168.9
2023-02-07T16:25:29.259Z,4159.5
2023-02-07T16:31:05.464Z,4162.7
2023-02-07T16:36:43.369Z,4164
2023-02-07T16:42:22.568Z,4159.4
2023-02-07T16:47:57.424Z,4151.2
2023-02-07T16:53:38.056Z,4149.3
2023-02-07T16:59:12.848Z,4148
2023-02-07T17:04:48.291Z,4144
2023-02-07T17:10:23.536Z,4146.3
2023-02-07T17:15:59.151Z,4141.9
2023-02-07T17:21:34.058Z,4141.6
2023-02-07T17:27:09.522Z,4143.4
2023-02-07T17:32:45.246Z,4141.3
2023-02-07T17:38:21.292Z,4138.9
2023-02-07T17:43:56.293Z,4139.6
2023-02-07T17:49:31.761Z,4139.1
2023-02-07T17:55:07.123Z,4138.8
2023-02-07T18:00:44.390Z,4139.4
2023-02-07T18:06:30.786Z,4140.9
2023-02-07T18:12:05.878Z,4140.1
2023-02-07T18:17:40.759Z,4140.8
2023-02-07T18:23:21.109Z,4139.1
2023-02-07T18:28:57.255Z,4139.6
2023-02-07T18:34:33.983Z,4140.9
2023-02-07T18:40:17.387Z,4140.8
2023-02-07T18:45:54.139Z,4143.1
2023-02-07T18:51:29.900Z,4140.8
2023-02-07T18:57:06.760Z,4139.6
2023-02-07T19:02:42.398Z,4141.4
2023-02-07T19:08:19.388Z,4142.3
2023-02-07T19:13:54.974Z,4141.4
2023-02-07T19:19:29.973Z,4141.1
2023-02-07T19:25:05.477Z,4140.4
2023-02-07T19:30:43.710Z,4141.8
2023-02-07T19:36:19.000Z,4141.1
2023-02-07T19:41:54.633Z,4140.3
2023-02-07T19:47:51.471Z,4137.2
2023-02-07T19:53:24.277Z,4137.6
2023-02-07T19:59:00.583Z,4141.8
2023-02-07T20:04:35.991Z,4138.9
2023-02-07T20:10:10.585Z,4138.4
2023-02-07T20:15:47.583Z,4136.7
2023-02-07T20:21:23.328Z,4139.6
2023-02-07T20:26:58.449Z,4135.6
2023-02-07T20:32:35.299Z,4140.8
2023-02-07T20:38:10.923Z,4139.1
2023-02-07T20:43:46.257Z,4133.9
2023-02-07T20:49:43.212Z,4132.7
2023-02-07T20:55:16.223Z,4136.2
2023-02-07T21:00:51.770Z,4137.4
2023-02-07T21:06:28.747Z,4135.6
2023-02-07T21:12:04.146Z,4137.9
2023-02-07T21:17:39.550Z,4133.9
2023-02-07T21:23:14.878Z,4135.2
2023-02-07T21:28:50.237Z,4134.1
2023-02-07T21:34:26.622Z,4135.1
2023-02-07T21:40:01.756Z,4135.1
2023-02-07T21:45:37.914Z,4133.1
2023-02-07T21:51:13.001Z,4133.9
2023-02-07T21:56:48.348Z,4132.4
2023-02-07T22:02:28.141Z,4131.4
2023-02-07T22:08:04.911Z,4134.1
2023-02-07T22:13:39.993Z,4134.1
2023-02-07T22:19:16.051Z,4132.9
2023-02-07T22:24:51.179Z,4131.2
2023-02-07T22:30:26.331Z,4132.4
2023-02-07T22:36:01.378Z,4130.7
2023-02-07T22:41:36.666Z,4129
2023-02-07T22:47:35.050Z,4126.5
2023-02-07T22:53:08.802Z,4129.9
2023-02-07T22:58:43.921Z,4130.7
2023-02-07T23:04:23.260Z,4129.9
2023-02-07T23:09:58.227Z,4128
2023-02-07T23:15:33.719Z,4129.2
2023-02-07T23:21:09.268Z,4129
2023-02-07T23:26:44.757Z,4128
2023-02-07T23:32:19.908Z,4125.9
2023-02-07T23:37:55.343Z,4127.7
2023-02-07T23:43:30.654Z,4126.2
2023-02-07T23:49:27.565Z,4121.8
2023-02-07T23:55:01.452Z,4125.2
